createdAt,value
2022-08-25T00:00:15.657Z,98453.59
2022-08-25T00:02:48.484Z,98450.44
2022-08-25T00:05:26.439Z,98449.56
2022-08-25T00:07:55.557Z,98446.94
2022-08-25T00:10:22.980Z,98452.16
2022-08-25T00:12:50.338Z,98447.44
2022-08-25T00:15:17.729Z,98443.09
2022-08-25T00:17:45.474Z,98442.72
2022-08-25T00:20:12.908Z,98436.19
2022-08-25T00:22:40.679Z,98431.31
2022-08-25T00:25:09.741Z,98441.00
2022-08-25T00:27:37.419Z,98440.19
2022-08-25T00:30:06.365Z,98437.03
2022-08-25T00:32:33.786Z,98440.09
2022-08-25T00:35:01.307Z,98433.56
2022-08-25T00:37:28.742Z,98441.22
2022-08-25T00:39:57.240Z,98435.34
2022-08-25T00:42:25.649Z,98440.25
2022-08-25T00:44:53.834Z,98435.72
2022-08-25T00:47:20.890Z,98442.47
2022-08-25T00:50:00.921Z,98445.38
2022-08-25T00:52:54.002Z,98436.97
2022-08-25T00:55:31.367Z,98440.53
2022-08-25T00:58:19.207Z,98436.03
2022-08-25T01:00:50.337Z,98434.19
2022-08-25T01:03:19.804Z,98436.50
2022-08-25T01:05:48.114Z,98436.19
2022-08-25T01:08:18.420Z,98438.56
2022-08-25T01:10:47.212Z,98431.91
2022-08-25T01:13:24.541Z,98432.91
2022-08-25T01:15:56.001Z,98436.59
2022-08-25T01:18:24.337Z,98435.31
2022-08-25T01:20:59.762Z,98426.44
2022-08-25T01:23:27.530Z,98432.28
2022-08-25T01:26:16.382Z,98431.63
2022-08-25T01:29:05.497Z,98425.09
2022-08-25T01:31:34.384Z,98425.75
2022-08-25T01:34:01.608Z,98417.56
2022-08-25T01:36:30.125Z,98415.88
2022-08-25T01:38:57.763Z,98424.59
2022-08-25T01:42:05.405Z,98422.28
2022-08-25T01:44:35.908Z,98423.56
2022-08-25T01:47:04.772Z,98423.91
2022-08-25T01:49:32.567Z,98419.22
2022-08-25T01:52:21.361Z,98423.72
2022-08-25T01:54:49.154Z,98417.91
2022-08-25T01:57:16.586Z,98416.88
2022-08-25T01:59:44.855Z,98414.88
2022-08-25T02:02:12.293Z,98415.22
2022-08-25T02:04:39.621Z,98421.22
2022-08-25T02:07:11.575Z,98415.19
2022-08-25T02:09:39.302Z,98418.75
2022-08-25T02:12:09.188Z,98419.06
2022-08-25T02:14:37.216Z,98427.09
2022-08-25T02:17:05.764Z,98421.91
2022-08-25T02:19:33.014Z,98418.22
2022-08-25T02:22:00.998Z,98421.06
2022-08-25T02:24:28.484Z,98414.03
2022-08-25T02:26:55.604Z,98420.56
2022-08-25T02:29:22.792Z,98415.56
2022-08-25T02:31:50.214Z,98422.06
2022-08-25T02:34:17.545Z,98422.41
2022-08-25T02:36:44.618Z,98415.22
2022-08-25T02:39:12.513Z,98409.22
2022-08-25T02:41:39.697Z,98414.53
2022-08-25T02:44:08.332Z,98414.38
2022-08-25T02:46:36.902Z,98416.38
2022-08-25T02:49:05.331Z,98408.03
2022-08-25T02:51:33.597Z,98416.91
2022-08-25T02:54:02.634Z,98408.34
2022-08-25T02:56:31.577Z,98409.19
2022-08-25T02:58:59.969Z,98407.69
2022-08-25T03:01:29.184Z,98403.66
2022-08-25T03:03:57.396Z,98399.66
2022-08-25T03:06:25.093Z,98406.84
2022-08-25T03:08:53.625Z,98407.03
2022-08-25T03:11:21.593Z,98398.66
2022-08-25T03:13:50.951Z,98397.34
2022-08-25T03:16:19.030Z,98399.16
2022-08-25T03:18:46.790Z,98399.19
2022-08-25T03:21:15.763Z,98390.31
2022-08-25T03:23:44.575Z,98394.66
2022-08-25T03:26:30.573Z,98396.81
2022-08-25T03:28:58.185Z,98392.97
2022-08-25T03:31:27.671Z,98396.66
2022-08-25T03:33:55.904Z,98394.84
2022-08-25T03:36:23.857Z,98392.00
2022-08-25T03:38:52.255Z,98392.47
2022-08-25T03:41:22.738Z,98402.78
2022-08-25T03:43:51.113Z,98410.84
2022-08-25T03:46:29.858Z,98413.34
2022-08-25T03:48:58.041Z,98420.00
2022-08-25T03:51:36.062Z,98419.03
2022-08-25T03:54:04.949Z,98419.72
2022-08-25T03:56:32.017Z,98421.41
2022-08-25T03:59:00.582Z,98418.63
2022-08-25T04:01:28.390Z,98417.38
2022-08-25T04:03:55.886Z,98423.84
2022-08-25T04:06:23.527Z,98412.38
2022-08-25T04:08:52.618Z,98412.81
2022-08-25T04:11:22.853Z,98409.94
2022-08-25T04:13:51.925Z,98407.28
2022-08-25T04:16:23.110Z,98406.34
2022-08-25T04:18:51.621Z,98409.31
2022-08-25T04:21:20.326Z,98400.03
2022-08-25T04:23:49.033Z,98398.22
2022-08-25T04:26:22.886Z,98400.09
2022-08-25T04:28:50.645Z,98396.84
2022-08-25T04:31:19.438Z,98394.84
2022-08-25T04:33:48.052Z,98394.97
2022-08-25T04:36:16.686Z,98395.72
2022-08-25T04:38:45.256Z,98400.22
2022-08-25T04:41:14.901Z,98407.31
2022-08-25T04:43:44.000Z,98410.03
2022-08-25T04:46:24.459Z,98406.72
2022-08-25T04:48:53.911Z,98402.75
2022-08-25T04:51:26.072Z,98405.66
2022-08-25T04:53:53.576Z,98404.59
2022-08-25T04:56:26.190Z,98397.44
2022-08-25T04:58:55.393Z,98407.00
2022-08-25T05:01:25.531Z,98428.41
2022-08-25T05:03:57.220Z,98422.91
2022-08-25T05:06:24.512Z,98424.44
2022-08-25T05:08:52.065Z,98419.03
2022-08-25T05:11:19.656Z,98419.94
2022-08-25T05:13:51.233Z,98416.63
2022-08-25T05:16:20.692Z,98407.53
2022-08-25T05:18:48.103Z,98414.97
2022-08-25T05:21:19.576Z,98413.06
2022-08-25T05:23:47.573Z,98403.16
2022-08-25T05:26:20.776Z,98404.34
2022-08-25T05:28:51.279Z,98403.28
2022-08-25T05:31:20.012Z,98400.53
2022-08-25T05:36:16.237Z,98396.03
2022-08-25T05:38:43.557Z,98382.50
2022-08-25T05:41:20.710Z,98374.28
2022-08-25T05:43:49.804Z,98386.34
2022-08-25T05:46:19.921Z,98394.00
2022-08-25T05:48:47.835Z,98396.66
2022-08-25T05:51:16.058Z,98394.41
2022-08-25T05:53:46.280Z,98394.31
2022-08-25T05:56:14.581Z,98380.84
2022-08-25T05:58:43.088Z,98376.16
2022-08-25T06:01:30.521Z,98370.44
2022-08-25T06:03:57.567Z,98363.31
2022-08-25T06:06:24.875Z,98356.13
2022-08-25T06:08:52.316Z,98356.38
2022-08-25T06:11:19.623Z,98348.41
2022-08-25T06:13:46.633Z,98344.97
2022-08-25T06:16:13.726Z,98340.16
2022-08-25T06:18:40.786Z,98344.19
2022-08-25T06:21:13.393Z,98342.16
2022-08-25T06:23:41.553Z,98334.69
2022-08-25T06:26:13.179Z,98326.41
2022-08-25T06:28:51.646Z,98328.34
2022-08-25T06:31:20.465Z,98331.16
2022-08-25T06:33:48.010Z,98338.13
2022-08-25T06:36:15.689Z,98335.69
2022-08-25T06:38:42.853Z,98330.19
2022-08-25T06:41:12.840Z,98331.88
2022-08-25T06:43:48.091Z,98331.75
2022-08-25T06:46:31.707Z,98339.66
2022-08-25T06:49:08.125Z,98340.69
2022-08-25T06:51:36.179Z,98345.22
2022-08-25T06:54:06.288Z,98334.59
2022-08-25T06:56:34.250Z,98332.53
2022-08-25T06:59:05.434Z,98328.56
2022-08-25T07:01:33.257Z,98325.13
2022-08-25T07:04:02.945Z,98328.84
2022-08-25T07:06:33.081Z,98328.63
2022-08-25T07:09:00.363Z,98332.00
2022-08-25T07:11:28.271Z,98332.41
2022-08-25T07:13:55.293Z,98334.59
2022-08-25T07:16:22.466Z,98336.56
2022-08-25T07:18:50.755Z,98335.97
2022-08-25T07:21:21.814Z,98331.97
2022-08-25T07:23:52.388Z,98340.31
2022-08-25T07:26:37.317Z,98330.97
2022-08-25T07:29:13.336Z,98329.63
2022-08-25T07:31:41.366Z,98329.16
2022-08-25T07:34:28.340Z,98327.66
2022-08-25T07:36:57.458Z,98321.22
2022-08-25T07:39:26.789Z,98319.47
2022-08-25T07:41:57.294Z,98313.00
2022-08-25T07:44:28.089Z,98317.41
2022-08-25T07:46:56.032Z,98318.25
2022-08-25T07:49:25.352Z,98318.28
2022-08-25T07:52:05.203Z,98318.38
2022-08-25T07:54:38.081Z,98314.25
2022-08-25T07:57:08.405Z,98314.34
2022-08-25T07:59:42.735Z,98315.97
2022-08-25T08:02:16.020Z,98306.38
2022-08-25T08:04:50.594Z,98300.16
2022-08-25T08:07:27.670Z,98295.66
2022-08-25T08:13:01.638Z,98308.97
2022-08-25T08:15:30.189Z,98315.41
2022-08-25T08:17:59.312Z,98313.59
2022-08-25T08:20:27.288Z,98325.63
2022-08-25T08:22:54.606Z,98317.03
2022-08-25T08:25:26.656Z,98312.94
2022-08-25T08:27:56.224Z,98323.47
2022-08-25T08:30:26.333Z,98319.59
2022-08-25T08:33:12.048Z,98311.75
2022-08-25T08:35:41.229Z,98294.06
2022-08-25T08:38:14.943Z,98308.88
2022-08-25T08:41:33.892Z,98302.72
2022-08-25T08:44:24.941Z,98302.81
2022-08-25T08:47:33.422Z,98294.81
2022-08-25T08:51:01.097Z,98304.47
2022-08-25T08:53:55.305Z,98298.69
2022-08-25T08:56:25.905Z,98280.94
2022-08-25T08:59:05.137Z,98285.06
2022-08-25T09:01:41.639Z,98288.97
2022-08-25T09:04:20.063Z,98285.00
2022-08-25T09:06:49.900Z,98277.06
2022-08-25T09:12:07.085Z,98267.88
2022-08-25T09:14:54.013Z,98264.19
2022-08-25T09:17:57.912Z,98263.53
2022-08-25T09:20:37.068Z,98268.22
2022-08-25T09:23:34.867Z,98268.97
2022-08-25T09:26:39.024Z,98260.56
2022-08-25T09:29:21.727Z,98255.91
2022-08-25T09:31:49.325Z,98247.31
2022-08-25T09:34:22.830Z,98244.13
2022-08-25T09:36:52.932Z,98252.81
2022-08-25T09:39:21.178Z,98250.09
2022-08-25T09:42:01.543Z,98254.19
2022-08-25T09:44:33.380Z,98257.66
2022-08-25T09:47:26.051Z,98241.47
2022-08-25T09:49:57.345Z,98243.38
2022-08-25T09:52:41.125Z,98239.66
2022-08-25T09:55:08.386Z,98236.75
2022-08-25T09:57:43.143Z,98233.59
2022-08-25T10:00:31.177Z,98225.94
2022-08-25T10:03:22.704Z,98236.13
2022-08-25T10:06:13.675Z,98229.59
2022-08-25T10:08:43.454Z,98222.84
2022-08-25T10:11:31.325Z,98226.75
2022-08-25T10:14:26.255Z,98221.41
2022-08-25T10:16:54.494Z,98216.56
2022-08-25T10:19:30.782Z,98222.03
2022-08-25T10:22:25.851Z,98211.97
2022-08-25T10:24:55.525Z,98203.66
2022-08-25T10:28:04.308Z,98218.38
2022-08-25T10:31:16.202Z,98206.94
2022-08-25T10:33:51.261Z,98192.69
2022-08-25T10:36:33.154Z,98190.75
2022-08-25T10:39:02.187Z,98177.09
2022-08-25T10:42:01.038Z,98188.06
2022-08-25T10:45:35.680Z,98183.88
2022-08-25T10:48:22.322Z,98173.72
2022-08-25T10:51:33.146Z,98174.78
2022-08-25T10:54:11.989Z,98179.69
2022-08-25T10:56:44.625Z,98176.13
2022-08-25T11:00:05.819Z,98177.31
2022-08-25T11:03:26.817Z,98170.22
2022-08-25T11:06:02.014Z,98172.16
2022-08-25T11:08:36.064Z,98165.94
2022-08-25T11:11:39.372Z,98168.94
2022-08-25T11:14:21.409Z,98156.97
2022-08-25T11:16:56.009Z,98154.53
2022-08-25T11:19:47.223Z,98149.03
2022-08-25T11:22:34.188Z,98149.94
2022-08-25T11:25:23.990Z,98142.03
2022-08-25T11:28:08.200Z,98143.06
2022-08-25T11:30:35.251Z,98144.16
2022-08-25T11:33:02.383Z,98142.44
2022-08-25T11:35:54.791Z,98135.13
2022-08-25T11:39:04.705Z,98122.88
2022-08-25T11:41:59.060Z,98118.88
2022-08-25T11:44:53.135Z,98119.25
2022-08-25T11:47:44.630Z,98126.44
2022-08-25T11:50:36.497Z,98132.06
2022-08-25T11:53:30.241Z,98130.91
2022-08-25T11:56:07.003Z,98125.47
2022-08-25T11:58:51.853Z,98127.03
2022-08-25T12:01:40.490Z,98125.75
2022-08-25T12:04:45.007Z,98122.75
2022-08-25T12:07:22.130Z,98123.31
2022-08-25T12:09:53.744Z,98118.63
2022-08-25T12:12:41.821Z,98109.91
2022-08-25T12:15:57.238Z,98126.63
2022-08-25T12:18:27.351Z,98119.69
2022-08-25T12:20:55.059Z,98120.41
2022-08-25T12:23:45.207Z,98122.00
2022-08-25T12:26:39.139Z,98115.63
2022-08-25T12:29:23.394Z,98111.78
2022-08-25T12:32:15.399Z,98102.53
2022-08-25T12:35:29.844Z,98109.56
2022-08-25T12:38:05.926Z,98113.25
2022-08-25T12:40:54.470Z,98112.75
2022-08-25T12:43:38.081Z,98104.72
2022-08-25T12:46:23.243Z,98113.88
2022-08-25T12:48:57.452Z,98105.34
2022-08-25T12:51:40.377Z,98106.31
2022-08-25T12:54:59.651Z,98106.38
2022-08-25T12:57:52.323Z,98110.19
2022-08-25T13:00:33.433Z,98103.06
2022-08-25T13:03:21.717Z,98101.28
2022-08-25T13:06:22.425Z,98103.31
2022-08-25T13:09:17.114Z,98101.09
2022-08-25T13:11:56.561Z,98091.63
2022-08-25T13:14:34.865Z,98082.25
2022-08-25T13:17:06.403Z,98073.84
2022-08-25T13:19:35.000Z,98072.13
2022-08-25T13:22:16.784Z,98079.25
2022-08-25T13:24:47.430Z,98078.75
2022-08-25T13:27:41.377Z,98081.34
2022-08-25T13:30:31.353Z,98080.31
2022-08-25T13:32:58.842Z,98076.00
2022-08-25T13:35:32.925Z,98082.59
2022-08-25T13:38:15.429Z,98062.97
2022-08-25T13:40:43.217Z,98064.75
2022-08-25T13:43:14.359Z,98053.31
2022-08-25T13:45:47.642Z,98050.84
2022-08-25T13:48:36.101Z,98049.03
2022-08-25T13:51:31.346Z,98054.22
2022-08-25T13:54:04.579Z,98057.28
2022-08-25T13:56:41.571Z,98057.16
2022-08-25T13:59:40.261Z,98051.78
2022-08-25T14:02:19.655Z,98054.72
2022-08-25T14:04:51.534Z,98044.94
2022-08-25T14:07:22.779Z,98049.41
2022-08-25T14:10:10.275Z,98042.75
2022-08-25T14:12:45.474Z,98038.44
2022-08-25T14:15:21.854Z,98040.13
2022-08-25T14:18:29.492Z,98034.34
2022-08-25T14:20:58.215Z,98034.78
2022-08-25T14:23:27.645Z,98037.63
2022-08-25T14:25:57.806Z,98038.06
2022-08-25T14:28:29.286Z,98036.50
2022-08-25T14:31:14.387Z,98033.56
2022-08-25T14:33:59.109Z,98041.34
2022-08-25T14:36:26.780Z,98037.69
2022-08-25T14:38:56.879Z,98034.13
2022-08-25T14:41:26.566Z,98032.13
2022-08-25T14:43:54.264Z,98034.31
2022-08-25T14:46:29.353Z,98026.63
2022-08-25T14:49:03.367Z,98020.09
2022-08-25T14:51:32.597Z,98016.22
2022-08-25T14:54:07.321Z,98019.47
2022-08-25T14:56:36.120Z,98020.69
2022-08-25T14:59:04.875Z,98015.59
2022-08-25T15:01:32.027Z,98013.44
2022-08-25T15:04:06.219Z,98011.22
2022-08-25T15:06:36.236Z,98008.97
2022-08-25T15:09:10.919Z,98012.84
2022-08-25T15:11:54.692Z,98003.53
2022-08-25T15:14:29.143Z,98008.34
2022-08-25T15:17:01.605Z,98006.41
2022-08-25T15:19:29.551Z,97994.44
2022-08-25T15:21:57.853Z,97997.25
2022-08-25T15:24:27.176Z,98003.53
2022-08-25T15:27:00.826Z,97991.69
2022-08-25T15:29:30.878Z,97990.78
2022-08-25T15:32:00.282Z,97987.63
2022-08-25T15:34:28.897Z,97991.50
2022-08-25T15:36:58.371Z,97988.19
2022-08-25T15:39:26.665Z,97995.03
2022-08-25T15:41:54.106Z,97987.06
2022-08-25T15:44:25.050Z,97987.06
2022-08-25T15:46:53.489Z,97987.25
2022-08-25T15:49:24.184Z,97981.84
2022-08-25T15:51:54.431Z,97983.25
2022-08-25T15:54:26.745Z,97985.91
2022-08-25T15:56:55.297Z,97976.34
2022-08-25T15:59:22.629Z,97981.53
2022-08-25T16:01:55.548Z,97974.22
2022-08-25T16:04:24.973Z,97967.28
2022-08-25T16:06:53.019Z,97977.47
2022-08-25T16:09:23.001Z,97976.81
2022-08-25T16:11:56.678Z,97977.91
2022-08-25T16:14:27.667Z,97972.78
2022-08-25T16:16:58.568Z,97974.72
2022-08-25T16:19:28.833Z,97974.03
2022-08-25T16:21:56.177Z,97971.38
2022-08-25T16:24:23.229Z,97966.47
2022-08-25T16:26:51.815Z,97971.09
2022-08-25T16:29:20.114Z,97972.22
2022-08-25T16:31:53.190Z,97972.38
2022-08-25T16:34:24.777Z,97969.22
2022-08-25T16:36:55.955Z,97968.31
2022-08-25T16:39:23.874Z,97967.00
2022-08-25T16:41:52.444Z,97972.06
2022-08-25T16:44:21.417Z,97969.81
2022-08-25T16:46:50.130Z,97971.97
2022-08-25T16:49:17.988Z,97968.00
2022-08-25T16:51:45.164Z,97967.09
2022-08-25T16:54:32.959Z,97972.78
2022-08-25T16:57:00.676Z,97972.28
2022-08-25T16:59:27.791Z,97967.34
2022-08-25T17:01:54.922Z,97974.22
2022-08-25T17:04:27.630Z,97968.47
2022-08-25T17:07:00.315Z,97960.44
2022-08-25T17:09:29.767Z,97967.00
2022-08-25T17:11:57.252Z,97963.53
2022-08-25T17:14:24.830Z,97961.91
2022-08-25T17:16:55.034Z,97961.09
2022-08-25T17:19:24.864Z,97955.66
2022-08-25T17:21:54.804Z,97955.66
2022-08-25T17:24:22.385Z,97961.41
2022-08-25T17:26:57.072Z,97961.84
2022-08-25T17:29:24.874Z,97960.91
2022-08-25T17:31:52.214Z,97959.94
2022-08-25T17:34:22.992Z,97959.09
2022-08-25T17:36:51.318Z,97961.56
2022-08-25T17:39:19.829Z,97956.50
2022-08-25T17:41:50.568Z,97956.75
2022-08-25T17:44:19.456Z,97970.16
2022-08-25T17:46:48.044Z,97968.09
2022-08-25T17:49:17.091Z,97963.13
2022-08-25T17:51:45.189Z,97970.53
2022-08-25T17:54:13.157Z,97962.19
2022-08-25T17:56:40.880Z,97974.97
2022-08-25T17:59:08.839Z,97975.66
2022-08-25T18:01:40.804Z,97977.09
2022-08-25T18:04:16.924Z,97980.19
2022-08-25T18:06:47.554Z,97980.31
2022-08-25T18:09:15.965Z,97978.44
2022-08-25T18:11:43.287Z,97984.63
2022-08-25T18:14:12.143Z,97988.50
2022-08-25T18:16:40.801Z,97981.63
2022-08-25T18:19:10.797Z,97981.97
2022-08-25T18:21:38.798Z,97988.56
2022-08-25T18:24:07.334Z,97993.28
2022-08-25T18:26:35.758Z,97989.38
2022-08-25T18:29:03.862Z,97996.63
2022-08-25T18:31:31.637Z,97988.56
2022-08-25T18:33:59.801Z,97998.31
2022-08-25T18:36:27.291Z,98002.00
2022-08-25T18:39:14.147Z,97997.53
2022-08-25T18:41:42.745Z,98002.69
2022-08-25T18:44:12.628Z,97995.78
2022-08-25T18:46:43.474Z,97996.88
2022-08-25T18:49:15.579Z,97997.06
2022-08-25T18:51:44.868Z,98007.66
2022-08-25T18:54:23.297Z,98005.91
2022-08-25T18:56:52.805Z,98008.50
2022-08-25T18:59:23.780Z,98003.44
2022-08-25T19:01:53.745Z,98002.22
2022-08-25T19:04:31.278Z,98006.00
2022-08-25T19:07:00.491Z,98008.78
2022-08-25T19:09:28.259Z,98012.72
2022-08-25T19:11:56.025Z,98016.28
2022-08-25T19:14:23.723Z,98007.97
2022-08-25T19:16:54.635Z,98013.09
2022-08-25T19:19:23.437Z,98012.63
2022-08-25T19:21:51.588Z,98013.63
2022-08-25T19:24:19.365Z,98009.75
2022-08-25T19:26:47.321Z,98004.28
2022-08-25T19:29:17.780Z,98021.16
2022-08-25T19:31:47.622Z,98017.84
2022-08-25T19:34:25.292Z,98016.84
2022-08-25T19:36:57.712Z,98011.06
2022-08-25T19:39:26.038Z,98021.00
2022-08-25T19:41:53.726Z,98022.50
2022-08-25T19:44:21.336Z,98019.63
2022-08-25T19:46:48.824Z,98024.59
2022-08-25T19:49:22.460Z,98022.53
2022-08-25T19:51:51.895Z,98027.72
2022-08-25T19:54:28.854Z,98032.88
2022-08-25T19:56:57.734Z,98029.97
2022-08-25T19:59:42.258Z,98027.03
2022-08-25T20:02:15.507Z,98031.59
2022-08-25T20:04:49.513Z,98023.75
2022-08-25T20:07:18.962Z,98032.06
2022-08-25T20:09:46.475Z,98034.78
2022-08-25T20:14:43.322Z,98033.31
2022-08-25T20:17:14.575Z,98036.19
2022-08-25T20:19:52.277Z,98037.22
2022-08-25T20:22:22.535Z,98032.22
2022-08-25T20:24:56.090Z,98036.19
2022-08-25T20:27:32.966Z,98042.81
2022-08-25T20:30:02.653Z,98040.53
2022-08-25T20:32:32.322Z,98037.00
2022-08-25T20:35:00.548Z,98035.34
2022-08-25T20:37:28.037Z,98040.28
2022-08-25T20:39:55.708Z,98045.25
2022-08-25T20:42:23.190Z,98045.81
2022-08-25T20:44:50.679Z,98039.41
2022-08-25T20:47:20.999Z,98044.81
2022-08-25T20:49:48.872Z,98055.66
2022-08-25T20:52:18.556Z,98048.06
2022-08-25T20:54:50.339Z,98055.50
2022-08-25T20:57:24.485Z,98053.69
2022-08-25T20:59:53.904Z,98050.19
2022-08-25T21:02:21.974Z,98050.34
2022-08-25T21:04:50.477Z,98048.88
2022-08-25T21:07:18.775Z,98055.44
2022-08-25T21:09:46.666Z,98049.06
2022-08-25T21:12:15.221Z,98051.13
2022-08-25T21:14:42.556Z,98054.91
2022-08-25T21:17:13.680Z,98058.94
2022-08-25T21:19:41.832Z,98050.63
2022-08-25T21:22:10.663Z,98057.66
2022-08-25T21:24:39.069Z,98056.44
2022-08-25T21:27:07.143Z,98060.75
2022-08-25T21:29:34.793Z,98055.75
2022-08-25T21:32:02.827Z,98061.97
2022-08-25T21:34:31.448Z,98062.94
2022-08-25T21:37:00.079Z,98059.88
2022-08-25T21:39:29.716Z,98072.47
2022-08-25T21:42:00.604Z,98071.47
2022-08-25T21:44:29.828Z,98063.78
2022-08-25T21:46:57.678Z,98072.09
2022-08-25T21:49:25.650Z,98066.25
2022-08-25T21:52:02.407Z,98072.44
2022-08-25T21:54:32.073Z,98075.94
2022-08-25T21:57:01.942Z,98076.72
2022-08-25T21:59:40.253Z,98065.97
2022-08-25T22:02:10.002Z,98072.13
2022-08-25T22:04:38.852Z,98072.63
2022-08-25T22:07:07.058Z,98067.47
2022-08-25T22:09:35.501Z,98075.88
2022-08-25T22:12:03.961Z,98078.78
2022-08-25T22:14:32.383Z,98072.44
2022-08-25T22:17:00.169Z,98069.59
2022-08-25T22:19:28.023Z,98068.53
2022-08-25T22:21:56.334Z,98064.00
2022-08-25T22:24:28.464Z,98064.78
2022-08-25T22:26:56.387Z,98060.81
2022-08-25T22:29:25.744Z,98065.72
2022-08-25T22:32:00.634Z,98060.72
2022-08-25T22:34:33.155Z,98063.06
2022-08-25T22:37:04.936Z,98062.53
2022-08-25T22:39:34.186Z,98060.22
2022-08-25T22:42:02.907Z,98063.94
2022-08-25T22:44:30.375Z,98065.13
2022-08-25T22:46:57.819Z,98063.34
2022-08-25T22:49:29.048Z,98063.44
2022-08-25T22:51:56.398Z,98062.34
2022-08-25T22:54:25.595Z,98053.66
2022-08-25T22:56:53.585Z,98054.59
2022-08-25T22:59:22.206Z,98052.63
2022-08-25T23:01:52.581Z,98058.47
2022-08-25T23:04:22.258Z,98053.56
2022-08-25T23:06:50.351Z,98052.19
2022-08-25T23:09:17.998Z,98050.88
2022-08-25T23:11:45.654Z,98056.63
2022-08-25T23:14:13.313Z,98054.06
2022-08-25T23:16:42.198Z,98051.09
2022-08-25T23:19:14.335Z,98045.09
2022-08-25T23:22:01.875Z,98054.09
2022-08-25T23:24:30.836Z,98051.09
2022-08-25T23:26:59.273Z,98048.84
2022-08-25T23:29:27.711Z,98045.63
2022-08-25T23:31:55.962Z,98045.78
2022-08-25T23:34:24.474Z,98044.97
2022-08-25T23:36:52.114Z,98052.84
2022-08-25T23:39:21.684Z,98046.34
2022-08-25T23:41:50.101Z,98043.41
2022-08-25T23:44:18.571Z,98040.25
2022-08-25T23:46:47.589Z,98042.25
2022-08-25T23:49:18.352Z,98037.34
2022-08-25T23:51:48.638Z,98033.19
2022-08-25T23:54:17.772Z,98033.75
2022-08-25T23:56:51.585Z,98037.25
2022-08-25T23:59:24.200Z,98031.44
